sensor_id;sensor_type;location;lat;lon;timestamp;P1;durP1;ratioP1;P2;durP2;ratioP2
61336;SDS011;47212;41.326;2.104;2024-02-15T00:03:24;11.05;;;7.75;;
61336;SDS011;47212;41.326;2.104;2024-02-15T00:08:31;14.32;;;8.52;;
61336;SDS011;47212;41.326;2.104;2024-02-15T00:13:35;21.35;;;11.30;;
61336;SDS011;47212;41.326;2.104;2024-02-15T00:18:38;24.33;;;12.23;;
61336;SDS011;47212;41.326;2.104;2024-02-15T00:23:42;32.08;;;12.02;;
61336;SDS011;47212;41.326;2.104;2024-02-15T00:28:45;26.25;;;11.93;;
61336;SDS011;47212;41.326;2.104;2024-02-15T00:33:47;26.40;;;10.25;;
61336;SDS011;47212;41.326;2.104;2024-02-15T00:38:57;25.23;;;11.07;;
61336;SDS011;47212;41.326;2.104;2024-02-15T00:44:01;29.80;;;12.07;;
61336;SDS011;47212;41.326;2.104;2024-02-15T00:49:10;23.48;;;11.45;;
61336;SDS011;47212;41.326;2.104;2024-02-15T00:54:17;23.52;;;10.73;;
61336;SDS011;47212;41.326;2.104;2024-02-15T00:59:19;26.33;;;11.73;;
61336;SDS011;47212;41.326;2.104;2024-02-15T01:04:23;26.27;;;11.50;;
61336;SDS011;47212;41.326;2.104;2024-02-15T01:09:25;25.17;;;11.25;;
61336;SDS011;47212;41.326;2.104;2024-02-15T01:14:29;23.90;;;10.63;;
61336;SDS011;47212;41.326;2.104;2024-02-15T01:19:41;24.35;;;9.73;;
61336;SDS011;47212;41.326;2.104;2024-02-15T01:24:46;22.02;;;9.27;;
61336;SDS011;47212;41.326;2.104;2024-02-15T01:29:49;24.13;;;10.88;;
61336;SDS011;47212;41.326;2.104;2024-02-15T01:34:56;25.17;;;10.88;;
61336;SDS011;47212;41.326;2.104;2024-02-15T01:39:59;26.05;;;11.35;;
61336;SDS011;47212;41.326;2.104;2024-02-15T01:45:06;28.10;;;11.60;;
61336;SDS011;47212;41.326;2.104;2024-02-15T01:50:15;28.52;;;12.07;;
61336;SDS011;47212;41.326;2.104;2024-02-15T01:55:21;26.50;;;12.52;;
61336;SDS011;47212;41.326;2.104;2024-02-15T02:05:20;18.02;;;10.63;;
61336;SDS011;47212;41.326;2.104;2024-02-15T02:10:23;15.80;;;8.73;;
61336;SDS011;47212;41.326;2.104;2024-02-15T02:15:25;11.07;;;7.25;;
61336;SDS011;47212;41.326;2.104;2024-02-15T02:20:27;9.63;;;7.32;;
61336;SDS011;47212;41.326;2.104;2024-02-15T02:25:31;12.40;;;7.78;;
61336;SDS011;47212;41.326;2.104;2024-02-15T02:30:33;11.43;;;8.35;;
61336;SDS011;47212;41.326;2.104;2024-02-15T02:35:36;10.55;;;7.32;;
61336;SDS011;47212;41.326;2.104;2024-02-15T02:40:39;9.50;;;6.97;;
61336;SDS011;47212;41.326;2.104;2024-02-15T02:45:44;10.77;;;7.10;;
61336;SDS011;47212;41.326;2.104;2024-02-15T02:50:48;13.23;;;7.60;;
61336;SDS011;47212;41.326;2.104;2024-02-15T02:55:51;11.65;;;7.07;;
61336;SDS011;47212;41.326;2.104;2024-02-15T03:01:06;10.85;;;7.57;;
61336;SDS011;47212;41.326;2.104;2024-02-15T03:06:11;8.85;;;6.18;;
61336;SDS011;47212;41.326;2.104;2024-02-15T03:11:14;14.52;;;7.57;;
61336;SDS011;47212;41.326;2.104;2024-02-15T03:16:24;13.73;;;7.68;;
61336;SDS011;47212;41.326;2.104;2024-02-15T03:21:28;10.43;;;7.15;;
61336;SDS011;47212;41.326;2.104;2024-02-15T03:26:33;14.70;;;8.15;;
61336;SDS011;47212;41.326;2.104;2024-02-15T03:31:39;13.50;;;8.30;;
61336;SDS011;47212;41.326;2.104;2024-02-15T03:36:41;14.57;;;7.13;;
61336;SDS011;47212;41.326;2.104;2024-02-15T03:46:57;10.90;;;7.28;;
61336;SDS011;47212;41.326;2.104;2024-02-15T03:52:04;12.32;;;7.32;;
61336;SDS011;47212;41.326;2.104;2024-02-15T03:57:08;14.45;;;8.05;;
61336;SDS011;47212;41.326;2.104;2024-02-15T04:02:13;14.30;;;7.68;;
61336;SDS011;47212;41.326;2.104;2024-02-15T04:07:18;15.50;;;8.85;;
61336;SDS011;47212;41.326;2.104;2024-02-15T04:12:21;18.08;;;8.48;;
61336;SDS011;47212;41.326;2.104;2024-02-15T04:17:26;16.80;;;8.13;;
61336;SDS011;47212;41.326;2.104;2024-02-15T04:22:28;16.60;;;7.55;;
61336;SDS011;47212;41.326;2.104;2024-02-15T04:27:47;13.68;;;6.57;;
61336;SDS011;47212;41.326;2.104;2024-02-15T04:32:52;11.60;;;7.25;;
61336;SDS011;47212;41.326;2.104;2024-02-15T04:37:54;15.38;;;7.68;;
61336;SDS011;47212;41.326;2.104;2024-02-15T04:42:58;14.10;;;7.70;;
61336;SDS011;47212;41.326;2.104;2024-02-15T04:48:04;13.20;;;7.35;;
61336;SDS011;47212;41.326;2.104;2024-02-15T04:53:16;11.75;;;6.85;;
61336;SDS011;47212;41.326;2.104;2024-02-15T04:58:22;13.40;;;7.72;;
61336;SDS011;47212;41.326;2.104;2024-02-15T05:03:28;16.25;;;8.55;;
61336;SDS011;47212;41.326;2.104;2024-02-15T05:08:30;12.40;;;6.97;;
61336;SDS011;47212;41.326;2.104;2024-02-15T05:13:36;12.45;;;7.68;;
61336;SDS011;47212;41.326;2.104;2024-02-15T05:33:24;11.77;;;6.63;;
61336;SDS011;47212;41.326;2.104;2024-02-15T05:38:28;15.73;;;7.95;;
61336;SDS011;47212;41.326;2.104;2024-02-15T05:43:36;11.45;;;6.68;;
61336;SDS011;47212;41.326;2.104;2024-02-15T05:48:39;14.73;;;8.32;;
61336;SDS011;47212;41.326;2.104;2024-02-15T05:53:43;19.40;;;9.65;;
61336;SDS011;47212;41.326;2.104;2024-02-15T05:58:46;16.52;;;9.88;;
61336;SDS011;47212;41.326;2.104;2024-02-15T06:03:51;19.75;;;10.43;;
61336;SDS011;47212;41.326;2.104;2024-02-15T06:09:05;15.23;;;8.30;;
61336;SDS011;47212;41.326;2.104;2024-02-15T06:14:09;19.80;;;9.80;;
61336;SDS011;47212;41.326;2.104;2024-02-15T06:19:11;18.27;;;9.05;;
61336;SDS011;47212;41.326;2.104;2024-02-15T06:24:13;21.90;;;9.90;;
61336;SDS011;47212;41.326;2.104;2024-02-15T06:29:16;18.08;;;8.60;;
61336;SDS011;47212;41.326;2.104;2024-02-15T06:34:37;15.70;;;9.18;;
61336;SDS011;47212;41.326;2.104;2024-02-15T06:39:59;14.63;;;7.82;;
61336;SDS011;47212;41.326;2.104;2024-02-15T06:45:03;13.23;;;6.95;;
61336;SDS011;47212;41.326;2.104;2024-02-15T06:50:07;15.30;;;6.25;;
61336;SDS011;47212;41.326;2.104;2024-02-15T06:55:12;10.10;;;6.70;;
61336;SDS011;47212;41.326;2.104;2024-02-15T07:00:19;10.57;;;6.28;;
61336;SDS011;47212;41.326;2.104;2024-02-15T07:05:21;12.55;;;6.95;;
61336;SDS011;47212;41.326;2.104;2024-02-15T07:10:29;11.57;;;6.82;;
61336;SDS011;47212;41.326;2.104;2024-02-15T07:15:37;14.13;;;7.93;;
61336;SDS011;47212;41.326;2.104;2024-02-15T07:20:42;15.07;;;7.38;;
61336;SDS011;47212;41.326;2.104;2024-02-15T07:25:44;17.75;;;8.13;;
61336;SDS011;47212;41.326;2.104;2024-02-15T07:30:53;14.55;;;6.82;;
61336;SDS011;47212;41.326;2.104;2024-02-15T07:36:06;14.85;;;7.50;;
61336;SDS011;47212;41.326;2.104;2024-02-15T07:41:09;15.35;;;7.13;;
61336;SDS011;47212;41.326;2.104;2024-02-15T07:51:27;12.85;;;6.43;;
61336;SDS011;47212;41.326;2.104;2024-02-15T07:56:29;14.20;;;8.68;;
61336;SDS011;47212;41.326;2.104;2024-02-15T08:06:35;14.07;;;8.90;;
61336;SDS011;47212;41.326;2.104;2024-02-15T08:11:41;16.52;;;10.10;;
61336;SDS011;47212;41.326;2.104;2024-02-15T08:16:44;14.52;;;7.88;;
61336;SDS011;47212;41.326;2.104;2024-02-15T08:21:47;12.38;;;6.47;;
61336;SDS011;47212;41.326;2.104;2024-02-15T08:26:53;13.85;;;6.90;;
61336;SDS011;47212;41.326;2.104;2024-02-15T08:31:55;13.88;;;6.53;;
61336;SDS011;47212;41.326;2.104;2024-02-15T08:36:57;10.80;;;5.97;;
61336;SDS011;47212;41.326;2.104;2024-02-15T08:42:00;9.18;;;4.75;;
61336;SDS011;47212;41.326;2.104;2024-02-15T08:47:03;14.65;;;6.72;;
61336;SDS011;47212;41.326;2.104;2024-02-15T08:52:12;12.52;;;6.95;;
61336;SDS011;47212;41.326;2.104;2024-02-15T08:57:16;11.18;;;6.68;;
61336;SDS011;47212;41.326;2.104;2024-02-15T09:02:23;14.35;;;6.47;;
61336;SDS011;47212;41.326;2.104;2024-02-15T09:07:25;14.80;;;6.38;;
61336;SDS011;47212;41.326;2.104;2024-02-15T09:12:29;14.05;;;6.88;;
61336;SDS011;47212;41.326;2.104;2024-02-15T09:17:34;12.63;;;6.32;;
61336;SDS011;47212;41.326;2.104;2024-02-15T09:22:51;18.15;;;7.60;;
61336;SDS011;47212;41.326;2.104;2024-02-15T09:27:54;17.02;;;7.93;;
61336;SDS011;47212;41.326;2.104;2024-02-15T09:32:56;10.80;;;7.18;;
61336;SDS011;47212;41.326;2.104;2024-02-15T09:37:58;19.95;;;8.20;;
61336;SDS011;47212;41.326;2.104;2024-02-15T09:43:01;12.15;;;6.80;;
61336;SDS011;47212;41.326;2.104;2024-02-15T09:48:04;12.93;;;7.65;;
61336;SDS011;47212;41.326;2.104;2024-02-15T09:53:11;16.25;;;7.93;;
61336;SDS011;47212;41.326;2.104;2024-02-15T09:58:23;14.23;;;7.53;;
61336;SDS011;47212;41.326;2.104;2024-02-15T10:03:28;11.45;;;7.07;;
61336;SDS011;47212;41.326;2.104;2024-02-15T10:08:38;17.92;;;7.38;;
61336;SDS011;47212;41.326;2.104;2024-02-15T10:13:42;14.18;;;7.00;;
61336;SDS011;47212;41.326;2.104;2024-02-15T10:18:46;11.77;;;7.68;;
61336;SDS011;47212;41.326;2.104;2024-02-15T10:24:11;16.27;;;8.10;;
61336;SDS011;47212;41.326;2.104;2024-02-15T10:29:13;12.95;;;8.52;;
61336;SDS011;47212;41.326;2.104;2024-02-15T10:34:21;15.02;;;9.82;;
61336;SDS011;47212;41.326;2.104;2024-02-15T10:39:25;12.13;;;7.25;;
61336;SDS011;47212;41.326;2.104;2024-02-15T10:44:29;10.93;;;6.38;;
61336;SDS011;47212;41.326;2.104;2024-02-15T10:49:32;9.27;;;5.72;;
61336;SDS011;47212;41.326;2.104;2024-02-15T11:00:24;5.85;;;2.92;;
61336;SDS011;47212;41.326;2.104;2024-02-15T11:05:38;5.03;;;2.40;;
61336;SDS011;47212;41.326;2.104;2024-02-15T11:10:42;7.93;;;3.15;;
61336;SDS011;47212;41.326;2.104;2024-02-15T11:15:45;3.88;;;2.00;;
61336;SDS011;47212;41.326;2.104;2024-02-15T11:20:53;6.65;;;2.42;;
61336;SDS011;47212;41.326;2.104;2024-02-15T11:26:01;7.10;;;3.03;;
61336;SDS011;47212;41.326;2.104;2024-02-15T11:31:08;5.15;;;2.53;;
61336;SDS011;47212;41.326;2.104;2024-02-15T11:36:12;4.60;;;2.17;;
61336;SDS011;47212;41.326;2.104;2024-02-15T11:41:17;4.15;;;2.30;;
61336;SDS011;47212;41.326;2.104;2024-02-15T11:46:20;4.70;;;2.72;;
61336;SDS011;47212;41.326;2.104;2024-02-15T11:51:29;5.20;;;2.40;;
61336;SDS011;47212;41.326;2.104;2024-02-15T11:56:55;5.55;;;2.28;;
61336;SDS011;47212;41.326;2.104;2024-02-15T12:02:12;5.50;;;2.45;;
61336;SDS011;47212;41.326;2.104;2024-02-15T12:07:33;4.45;;;2.60;;
61336;SDS011;47212;41.326;2.104;2024-02-15T12:12:54;5.03;;;3.03;;
61336;SDS011;47212;41.326;2.104;2024-02-15T12:18:15;9.23;;;3.05;;
61336;SDS011;47212;41.326;2.104;2024-02-15T12:23:48;6.55;;;3.42;;
61336;SDS011;47212;41.326;2.104;2024-02-15T12:28:52;4.68;;;2.97;;
61336;SDS011;47212;41.326;2.104;2024-02-15T12:39:26;7.30;;;4.82;;
61336;SDS011;47212;41.326;2.104;2024-02-15T12:44:30;4.07;;;2.78;;
61336;SDS011;47212;41.326;2.104;2024-02-15T12:49:35;3.70;;;2.50;;
61336;SDS011;47212;41.326;2.104;2024-02-15T12:54:47;5.45;;;2.60;;
61336;SDS011;47212;41.326;2.104;2024-02-15T12:59:49;3.22;;;1.75;;
61336;SDS011;47212;41.326;2.104;2024-02-15T13:04:57;2.22;;;1.67;;
61336;SDS011;47212;41.326;2.104;2024-02-15T13:09:59;3.63;;;1.65;;
61336;SDS011;47212;41.326;2.104;2024-02-15T13:15:02;3.08;;;1.75;;
61336;SDS011;47212;41.326;2.104;2024-02-15T13:20:06;2.58;;;1.48;;
61336;SDS011;47212;41.326;2.104;2024-02-15T13:25:15;4.07;;;1.42;;
61336;SDS011;47212;41.326;2.104;2024-02-15T13:30:22;3.10;;;1.50;;
61336;SDS011;47212;41.326;2.104;2024-02-15T13:35:29;3.72;;;1.90;;
61336;SDS011;47212;41.326;2.104;2024-02-15T13:40:32;3.33;;;1.77;;
61336;SDS011;47212;41.326;2.104;2024-02-15T13:45:40;7.07;;;1.92;;
61336;SDS011;47212;41.326;2.104;2024-02-15T13:50:43;2.95;;;1.70;;
61336;SDS011;47212;41.326;2.104;2024-02-15T13:55:47;3.88;;;2.25;;
61336;SDS011;47212;41.326;2.104;2024-02-15T14:00:49;7.65;;;2.47;;
61336;SDS011;47212;41.326;2.104;2024-02-15T14:05:54;3.20;;;1.73;;
61336;SDS011;47212;41.326;2.104;2024-02-15T14:11:00;4.55;;;2.42;;
61336;SDS011;47212;41.326;2.104;2024-02-15T14:16:04;3.53;;;1.90;;
61336;SDS011;47212;41.326;2.104;2024-02-15T14:21:10;5.63;;;2.08;;
61336;SDS011;47212;41.326;2.104;2024-02-15T14:26:13;6.25;;;3.78;;
61336;SDS011;47212;41.326;2.104;2024-02-15T14:31:17;7.78;;;4.93;;
61336;SDS011;47212;41.326;2.104;2024-02-15T14:36:41;6.25;;;3.35;;
61336;SDS011;47212;41.326;2.104;2024-02-15T14:41:44;7.80;;;2.95;;
61336;SDS011;47212;41.326;2.104;2024-02-15T14:46:54;3.58;;;2.13;;
61336;SDS011;47212;41.326;2.104;2024-02-15T14:51:56;9.48;;;2.45;;
61336;SDS011;47212;41.326;2.104;2024-02-15T14:56:59;8.05;;;2.17;;
61336;SDS011;47212;41.326;2.104;2024-02-15T15:02:01;6.47;;;2.28;;
61336;SDS011;47212;41.326;2.104;2024-02-15T15:07:13;9.75;;;2.33;;
61336;SDS011;47212;41.326;2.104;2024-02-15T15:12:34;7.43;;;2.38;;
61336;SDS011;47212;41.326;2.104;2024-02-15T15:17:41;4.30;;;1.90;;
61336;SDS011;47212;41.326;2.104;2024-02-15T15:22:44;3.08;;;1.90;;
61336;SDS011;47212;41.326;2.104;2024-02-15T15:27:47;4.00;;;2.42;;
61336;SDS011;47212;41.326;2.104;2024-02-15T15:32:49;5.18;;;2.40;;
61336;SDS011;47212;41.326;2.104;2024-02-15T15:37:52;6.25;;;2.00;;
61336;SDS011;47212;41.326;2.104;2024-02-15T15:42:55;8.73;;;2.88;;
61336;SDS011;47212;41.326;2.104;2024-02-15T15:47:57;3.42;;;1.92;;
61336;SDS011;47212;41.326;2.104;2024-02-15T15:52:59;4.70;;;2.15;;
61336;SDS011;47212;41.326;2.104;2024-02-15T15:58:01;4.72;;;2.33;;
61336;SDS011;47212;41.326;2.104;2024-02-15T16:03:04;5.00;;;2.10;;
61336;SDS011;47212;41.326;2.104;2024-02-15T16:08:11;5.07;;;1.92;;
61336;SDS011;47212;41.326;2.104;2024-02-15T16:13:13;6.38;;;2.80;;
61336;SDS011;47212;41.326;2.104;2024-02-15T16:18:15;6.40;;;2.30;;
61336;SDS011;47212;41.326;2.104;2024-02-15T16:23:19;4.25;;;2.30;;
61336;SDS011;47212;41.326;2.104;2024-02-15T16:28:21;4.53;;;2.03;;
61336;SDS011;47212;41.326;2.104;2024-02-15T16:33:23;7.60;;;2.53;;
61336;SDS011;47212;41.326;2.104;2024-02-15T16:38:28;4.15;;;2.15;;
61336;SDS011;47212;41.326;2.104;2024-02-15T16:43:33;4.40;;;2.30;;
61336;SDS011;47212;41.326;2.104;2024-02-15T16:48:36;5.07;;;1.83;;
61336;SDS011;47212;41.326;2.104;2024-02-15T16:53:38;9.30;;;2.28;;
61336;SDS011;47212;41.326;2.104;2024-02-15T16:58:40;5.50;;;2.10;;
61336;SDS011;47212;41.326;2.104;2024-02-15T17:03:42;8.10;;;2.40;;
61336;SDS011;47212;41.326;2.104;2024-02-15T17:08:45;7.28;;;2.47;;
61336;SDS011;47212;41.326;2.104;2024-02-15T17:13:50;4.75;;;2.30;;
61336;SDS011;47212;41.326;2.104;2024-02-15T17:18:54;6.95;;;2.42;;
61336;SDS011;47212;41.326;2.104;2024-02-15T17:23:57;4.93;;;2.20;;
61336;SDS011;47212;41.326;2.104;2024-02-15T17:29:00;3.67;;;2.00;;
61336;SDS011;47212;41.326;2.104;2024-02-15T17:34:10;6.72;;;2.10;;
61336;SDS011;47212;41.326;2.104;2024-02-15T17:39:18;4.80;;;2.13;;
61336;SDS011;47212;41.326;2.104;2024-02-15T17:44:21;5.75;;;2.28;;
61336;SDS011;47212;41.326;2.104;2024-02-15T17:49:24;5.82;;;2.00;;
61336;SDS011;47212;41.326;2.104;2024-02-15T17:54:27;4.72;;;1.88;;
61336;SDS011;47212;41.326;2.104;2024-02-15T17:59:32;5.68;;;2.17;;
61336;SDS011;47212;41.326;2.104;2024-02-15T18:04:35;6.55;;;2.40;;
61336;SDS011;47212;41.326;2.104;2024-02-15T18:09:38;2.88;;;1.90;;
61336;SDS011;47212;41.326;2.104;2024-02-15T18:14:40;4.03;;;2.28;;
61336;SDS011;47212;41.326;2.104;2024-02-15T18:19:44;5.63;;;2.40;;
61336;SDS011;47212;41.326;2.104;2024-02-15T18:24:47;8.85;;;2.42;;
61336;SDS011;47212;41.326;2.104;2024-02-15T18:29:55;4.88;;;2.05;;
61336;SDS011;47212;41.326;2.104;2024-02-15T18:34:57;4.15;;;1.77;;
61336;SDS011;47212;41.326;2.104;2024-02-15T18:40:02;2.33;;;1.50;;
61336;SDS011;47212;41.326;2.104;2024-02-15T18:45:24;3.13;;;1.70;;
61336;SDS011;47212;41.326;2.104;2024-02-15T18:50:27;4.53;;;2.22;;
61336;SDS011;47212;41.326;2.104;2024-02-15T18:55:30;4.82;;;2.17;;
61336;SDS011;47212;41.326;2.104;2024-02-15T19:00:36;3.90;;;1.90;;
61336;SDS011;47212;41.326;2.104;2024-02-15T19:06:00;3.78;;;2.15;;
61336;SDS011;47212;41.326;2.104;2024-02-15T19:11:04;5.25;;;2.10;;
61336;SDS011;47212;41.326;2.104;2024-02-15T19:16:06;3.85;;;2.13;;
61336;SDS011;47212;41.326;2.104;2024-02-15T19:21:10;6.35;;;2.17;;
61336;SDS011;47212;41.326;2.104;2024-02-15T19:26:16;3.42;;;2.10;;
61336;SDS011;47212;41.326;2.104;2024-02-15T19:31:18;6.90;;;2.80;;
61336;SDS011;47212;41.326;2.104;2024-02-15T19:36:20;7.30;;;2.83;;
61336;SDS011;47212;41.326;2.104;2024-02-15T19:41:26;6.13;;;2.15;;
61336;SDS011;47212;41.326;2.104;2024-02-15T19:46:35;7.63;;;2.28;;
61336;SDS011;47212;41.326;2.104;2024-02-15T19:51:45;12.25;;;3.10;;
61336;SDS011;47212;41.326;2.104;2024-02-15T19:56:52;8.93;;;4.55;;
61336;SDS011;47212;41.326;2.104;2024-02-15T20:01:54;6.45;;;3.20;;
61336;SDS011;47212;41.326;2.104;2024-02-15T20:06:57;6.80;;;3.05;;
61336;SDS011;47212;41.326;2.104;2024-02-15T20:11:59;5.15;;;2.42;;
61336;SDS011;47212;41.326;2.104;2024-02-15T20:17:02;7.80;;;2.45;;
61336;SDS011;47212;41.326;2.104;2024-02-15T20:22:04;7.65;;;2.45;;
61336;SDS011;47212;41.326;2.104;2024-02-15T20:27:09;5.85;;;2.70;;
61336;SDS011;47212;41.326;2.104;2024-02-15T20:32:12;5.50;;;2.40;;
61336;SDS011;47212;41.326;2.104;2024-02-15T20:37:15;5.30;;;2.63;;
61336;SDS011;47212;41.326;2.104;2024-02-15T20:42:18;5.75;;;2.42;;
61336;SDS011;47212;41.326;2.104;2024-02-15T20:47:21;4.82;;;2.33;;
61336;SDS011;47212;41.326;2.104;2024-02-15T20:52:26;5.72;;;2.35;;
61336;SDS011;47212;41.326;2.104;2024-02-15T20:57:33;5.45;;;2.15;;
61336;SDS011;47212;41.326;2.104;2024-02-15T21:02:36;8.95;;;2.65;;
61336;SDS011;47212;41.326;2.104;2024-02-15T21:07:44;5.22;;;2.33;;
61336;SDS011;47212;41.326;2.104;2024-02-15T21:12:47;5.53;;;2.70;;
61336;SDS011;47212;41.326;2.104;2024-02-15T21:17:49;2.53;;;1.83;;
61336;SDS011;47212;41.326;2.104;2024-02-15T21:22:52;4.82;;;2.40;;
61336;SDS011;47212;41.326;2.104;2024-02-15T21:28:01;3.22;;;2.03;;
61336;SDS011;47212;41.326;2.104;2024-02-15T21:33:09;7.38;;;2.58;;
61336;SDS011;47212;41.326;2.104;2024-02-15T21:38:11;3.83;;;2.10;;
61336;SDS011;47212;41.326;2.104;2024-02-15T21:43:13;4.25;;;1.92;;
61336;SDS011;47212;41.326;2.104;2024-02-15T21:48:19;3.63;;;1.70;;
61336;SDS011;47212;41.326;2.104;2024-02-15T21:53:25;7.07;;;4.13;;
61336;SDS011;47212;41.326;2.104;2024-02-15T21:58:31;8.15;;;5.00;;
61336;SDS011;47212;41.326;2.104;2024-02-15T22:03:33;8.35;;;3.38;;
61336;SDS011;47212;41.326;2.104;2024-02-15T22:09:29;4.85;;;2.38;;
61336;SDS011;47212;41.326;2.104;2024-02-15T22:14:36;4.35;;;2.42;;
61336;SDS011;47212;41.326;2.104;2024-02-15T22:19:43;4.55;;;2.22;;
61336;SDS011;47212;41.326;2.104;2024-02-15T22:25:05;6.85;;;3.22;;
61336;SDS011;47212;41.326;2.104;2024-02-15T22:30:23;7.78;;;3.05;;
61336;SDS011;47212;41.326;2.104;2024-02-15T22:35:32;8.70;;;3.20;;
61336;SDS011;47212;41.326;2.104;2024-02-15T22:41:07;7.82;;;3.83;;
61336;SDS011;47212;41.326;2.104;2024-02-15T22:46:13;8.63;;;4.18;;
61336;SDS011;47212;41.326;2.104;2024-02-15T22:51:43;9.25;;;4.55;;
61336;SDS011;47212;41.326;2.104;2024-02-15T22:56:49;9.85;;;4.57;;
61336;SDS011;47212;41.326;2.104;2024-02-15T23:02:00;7.55;;;4.93;;
61336;SDS011;47212;41.326;2.104;2024-02-15T23:07:03;10.32;;;4.65;;
61336;SDS011;47212;41.326;2.104;2024-02-15T23:12:38;11.55;;;4.68;;
61336;SDS011;47212;41.326;2.104;2024-02-15T23:17:46;10.50;;;4.70;;
61336;SDS011;47212;41.326;2.104;2024-02-15T23:22:53;10.90;;;4.70;;
61336;SDS011;47212;41.326;2.104;2024-02-15T23:27:59;11.10;;;4.72;;
61336;SDS011;47212;41.326;2.104;2024-02-15T23:33:05;9.70;;;4.57;;
61336;SDS011;47212;41.326;2.104;2024-02-15T23:38:12;10.57;;;5.70;;
61336;SDS011;47212;41.326;2.104;2024-02-15T23:43:35;8.93;;;4.83;;
61336;SDS011;47212;41.326;2.104;2024-02-15T23:48:40;12.20;;;5.80;;
61336;SDS011;47212;41.326;2.104;2024-02-15T23:53:44;10.15;;;5.07;;
61336;SDS011;47212;41.326;2.104;2024-02-15T23:58:50;10.57;;;4.88;;
